createdAt,value
2022-10-20T00:01:08.983Z,67.90
2022-10-20T00:03:37.866Z,67.90
2022-10-20T00:06:10.846Z,67.90
2022-10-20T00:08:40.817Z,67.90
2022-10-20T00:11:10.484Z,67.90
2022-10-20T00:13:39.203Z,67.90
2022-10-20T00:16:07.792Z,67.90
2022-10-20T00:18:36.557Z,67.90
2022-10-20T00:21:07.635Z,67.90
2022-10-20T00:23:35.918Z,67.90
2022-10-20T00:26:07.076Z,67.90
2022-10-20T00:28:35.350Z,67.90
2022-10-20T00:31:05.302Z,67.90
2022-10-20T00:33:34.010Z,67.90
2022-10-20T00:36:02.642Z,67.90
2022-10-20T00:38:30.809Z,67.80
2022-10-20T00:41:00.095Z,67.90
2022-10-20T00:43:43.240Z,67.90
2022-10-20T00:46:12.593Z,67.90
2022-10-20T00:48:41.812Z,67.90
2022-10-20T00:51:10.104Z,67.90
2022-10-20T00:53:38.274Z,67.90
2022-10-20T00:56:06.822Z,67.90
2022-10-20T00:58:37.094Z,67.90
2022-10-20T01:01:05.362Z,67.90
2022-10-20T01:03:40.599Z,67.80
2022-10-20T01:06:08.931Z,67.90
2022-10-20T01:08:37.119Z,67.80
2022-10-20T01:11:17.057Z,67.80
2022-10-20T01:13:59.431Z,67.90
2022-10-20T01:16:33.805Z,67.90
2022-10-20T01:19:14.748Z,67.90
2022-10-20T01:21:56.877Z,67.90
2022-10-20T01:24:40.628Z,67.90
2022-10-20T01:27:34.098Z,67.90
2022-10-20T01:30:14.923Z,67.80
2022-10-20T01:32:56.386Z,67.90
2022-10-20T01:35:34.567Z,67.90
2022-10-20T01:38:11.872Z,67.90
2022-10-20T01:40:44.257Z,67.80
2022-10-20T01:43:16.824Z,67.80
2022-10-20T01:45:48.354Z,67.80
2022-10-20T01:48:18.974Z,67.80
2022-10-20T01:50:48.202Z,67.80
2022-10-20T01:53:16.339Z,67.80
2022-10-20T01:55:45.939Z,67.70
2022-10-20T01:58:38.982Z,67.70
2022-10-20T02:01:18.233Z,67.70
2022-10-20T02:03:52.704Z,67.70
2022-10-20T02:06:32.629Z,67.70
2022-10-20T02:09:04.432Z,67.70
2022-10-20T02:11:41.386Z,67.70
2022-10-20T02:14:13.469Z,67.70
2022-10-20T02:16:45.976Z,67.70
2022-10-20T02:19:16.058Z,67.70
2022-10-20T02:21:44.233Z,67.70
2022-10-20T02:24:16.037Z,67.70
2022-10-20T02:26:45.317Z,67.80
2022-10-20T02:29:17.699Z,67.80
2022-10-20T02:31:46.675Z,67.70
2022-10-20T02:34:15.705Z,67.70
2022-10-20T02:36:45.365Z,67.70
2022-10-20T02:39:13.978Z,67.70
2022-10-20T02:41:42.006Z,67.70
2022-10-20T02:44:10.093Z,67.70
2022-10-20T02:46:39.570Z,67.70
2022-10-20T02:49:07.635Z,67.70
2022-10-20T02:51:35.675Z,67.60
2022-10-20T02:54:03.862Z,67.60
2022-10-20T02:56:31.927Z,67.60
2022-10-20T02:58:59.982Z,67.60
2022-10-20T03:01:28.105Z,67.60
2022-10-20T03:03:59.782Z,67.60
2022-10-20T03:06:28.047Z,67.60
2022-10-20T03:08:56.320Z,67.60
2022-10-20T03:11:24.481Z,67.70
2022-10-20T03:13:52.567Z,67.60
2022-10-20T03:16:20.613Z,67.60
2022-10-20T03:18:48.675Z,67.60
2022-10-20T03:21:18.265Z,67.60
2022-10-20T03:23:46.375Z,67.60
2022-10-20T03:26:14.851Z,67.60
2022-10-20T03:28:42.999Z,67.60
2022-10-20T03:31:11.460Z,67.60
2022-10-20T03:33:39.551Z,67.60
2022-10-20T03:36:08.021Z,67.60
2022-10-20T03:38:37.451Z,67.50
2022-10-20T03:41:05.641Z,67.50
2022-10-20T03:43:33.676Z,67.50
2022-10-20T03:46:06.360Z,67.50
2022-10-20T03:48:34.792Z,67.50
2022-10-20T03:51:04.311Z,67.50
2022-10-20T03:53:32.807Z,67.50
2022-10-20T03:56:06.778Z,67.50
2022-10-20T03:58:34.912Z,67.50
2022-10-20T04:01:03.467Z,67.50
2022-10-20T04:03:31.541Z,67.40
2022-10-20T04:05:59.642Z,67.40
2022-10-20T04:08:27.769Z,67.40
2022-10-20T04:10:55.940Z,67.40
2022-10-20T04:13:25.931Z,67.40
2022-10-20T04:15:54.060Z,67.40
2022-10-20T04:18:22.148Z,67.50
2022-10-20T04:20:50.293Z,67.50
2022-10-20T04:23:18.431Z,67.50
2022-10-20T04:25:48.463Z,67.40
2022-10-20T04:28:18.158Z,67.50
2022-10-20T04:30:47.952Z,67.50
2022-10-20T04:33:16.120Z,67.50
2022-10-20T04:35:44.520Z,67.50
2022-10-20T04:38:12.603Z,67.50
2022-10-20T04:40:40.695Z,67.40
2022-10-20T04:43:08.722Z,67.40
2022-10-20T04:45:37.999Z,67.40
2022-10-20T04:48:08.390Z,67.40
2022-10-20T04:50:36.432Z,67.40
2022-10-20T04:53:11.313Z,67.40
2022-10-20T04:55:39.431Z,67.40
2022-10-20T04:58:07.500Z,67.40
2022-10-20T05:00:35.565Z,67.40
2022-10-20T05:03:03.701Z,67.40
2022-10-20T05:05:33.130Z,67.40
2022-10-20T05:08:01.196Z,67.40
2022-10-20T05:10:32.075Z,67.40
2022-10-20T05:13:03.912Z,67.40
2022-10-20T05:15:32.003Z,67.40
2022-10-20T05:18:00.134Z,67.40
2022-10-20T05:20:30.996Z,67.40
2022-10-20T05:23:02.952Z,67.50
2022-10-20T05:25:36.397Z,67.50
2022-10-20T05:28:05.343Z,67.50
2022-10-20T05:30:35.797Z,67.60
2022-10-20T05:33:04.122Z,67.60
2022-10-20T05:35:32.627Z,67.50
2022-10-20T05:38:02.053Z,67.50
2022-10-20T05:40:30.201Z,67.50
2022-10-20T05:42:58.683Z,67.50
2022-10-20T05:45:26.806Z,67.50
2022-10-20T05:47:54.894Z,67.50
2022-10-20T05:50:23.300Z,67.50
2022-10-20T05:52:51.408Z,67.50
2022-10-20T05:55:20.972Z,67.60
2022-10-20T05:57:50.439Z,67.60
2022-10-20T06:00:24.473Z,67.60
2022-10-20T06:02:55.329Z,67.50
2022-10-20T06:05:23.461Z,67.50
2022-10-20T06:07:53.882Z,67.60
2022-10-20T06:10:24.590Z,67.60
2022-10-20T06:12:52.696Z,67.60
2022-10-20T06:15:20.858Z,67.60
2022-10-20T06:17:48.941Z,67.60
2022-10-20T06:20:17.166Z,67.50
2022-10-20T06:22:45.304Z,67.60
2022-10-20T06:25:13.387Z,67.60
2022-10-20T06:27:44.506Z,67.60
2022-10-20T06:30:13.118Z,67.60
2022-10-20T06:32:41.139Z,67.50
2022-10-20T06:35:09.463Z,67.50
2022-10-20T06:37:37.525Z,67.50
2022-10-20T06:40:06.359Z,67.50
2022-10-20T06:42:34.851Z,67.60
2022-10-20T06:45:05.270Z,67.50
2022-10-20T06:47:33.360Z,67.50
2022-10-20T06:50:01.427Z,67.60
2022-10-20T06:52:29.560Z,67.60
2022-10-20T06:54:57.634Z,67.60
2022-10-20T06:57:25.670Z,67.60
2022-10-20T06:59:53.717Z,67.60
2022-10-20T07:02:23.124Z,67.50
2022-10-20T07:04:51.326Z,67.50
2022-10-20T07:07:19.410Z,67.50
2022-10-20T07:09:47.453Z,67.50
2022-10-20T07:12:15.534Z,67.50
2022-10-20T07:14:43.611Z,67.50
2022-10-20T07:17:11.750Z,68.10
2022-10-20T07:19:41.202Z,68.80
2022-10-20T07:22:09.261Z,69.30
2022-10-20T07:24:37.771Z,69.50
2022-10-20T07:27:05.821Z,69.50
2022-10-20T07:32:07.554Z,69.50
2022-10-20T07:34:35.649Z,69.50
2022-10-20T07:41:04.859Z,69.50
2022-10-20T07:43:32.961Z,69.40
2022-10-20T07:46:01.041Z,69.50
2022-10-20T07:48:29.138Z,69.30
2022-10-20T07:53:47.630Z,69.30
2022-10-20T07:56:17.318Z,69.30
2022-10-20T07:58:45.766Z,69.20
2022-10-20T08:01:13.908Z,69.10
2022-10-20T08:03:41.963Z,69.00
2022-10-20T08:06:10.144Z,68.90
2022-10-20T08:08:38.236Z,68.80
2022-10-20T08:11:07.031Z,68.70
2022-10-20T08:13:36.712Z,68.70
2022-10-20T08:16:06.431Z,68.70
2022-10-20T08:18:37.575Z,68.60
2022-10-20T08:21:10.323Z,68.50
2022-10-20T08:23:41.861Z,68.40
2022-10-20T08:26:11.543Z,68.50
2022-10-20T08:28:41.188Z,68.40
2022-10-20T08:31:09.925Z,68.40
2022-10-20T08:33:37.970Z,68.40
2022-10-20T08:36:07.554Z,68.30
2022-10-20T08:38:36.753Z,68.30
2022-10-20T08:41:08.051Z,68.30
2022-10-20T08:43:41.191Z,68.20
2022-10-20T08:46:13.863Z,68.20
2022-10-20T08:48:43.086Z,68.10
2022-10-20T08:51:17.475Z,68.10
2022-10-20T08:53:50.470Z,68.10
2022-10-20T08:56:19.145Z,68.20
2022-10-20T08:58:47.765Z,68.10
2022-10-20T09:01:22.614Z,68.10
2022-10-20T09:03:56.434Z,68.00
2022-10-20T09:06:24.706Z,68.00
2022-10-20T09:08:54.038Z,67.90
2022-10-20T09:11:25.085Z,67.90
2022-10-20T09:13:54.802Z,67.90
2022-10-20T09:16:41.759Z,67.80
2022-10-20T09:19:19.671Z,67.80
2022-10-20T09:21:51.781Z,67.90
2022-10-20T09:24:22.031Z,67.80
2022-10-20T09:26:59.313Z,67.70
2022-10-20T09:29:37.180Z,67.70
2022-10-20T09:32:44.820Z,67.70
2022-10-20T09:35:19.154Z,67.70
2022-10-20T09:37:54.955Z,67.60
2022-10-20T09:40:26.263Z,67.50
2022-10-20T09:42:57.093Z,67.50
2022-10-20T09:45:28.646Z,67.50
2022-10-20T09:48:03.631Z,67.50
2022-10-20T09:50:35.266Z,67.50
2022-10-20T09:53:07.194Z,67.50
2022-10-20T09:55:37.527Z,67.40
2022-10-20T09:58:06.908Z,67.40
2022-10-20T10:00:40.609Z,67.40
2022-10-20T10:03:21.156Z,67.40
2022-10-20T10:05:51.866Z,67.30
2022-10-20T10:08:21.077Z,67.30
2022-10-20T10:11:00.711Z,67.20
2022-10-20T10:13:31.044Z,67.20
2022-10-20T10:16:06.139Z,67.20
2022-10-20T10:18:36.988Z,67.20
2022-10-20T10:21:07.714Z,67.10
2022-10-20T10:23:41.041Z,67.10
2022-10-20T10:26:44.608Z,67.10
2022-10-20T10:29:20.735Z,67.20
2022-10-20T10:31:56.889Z,67.10
2022-10-20T10:34:44.744Z,67.00
2022-10-20T10:37:15.127Z,66.90
2022-10-20T10:39:44.448Z,66.90
2022-10-20T10:42:34.367Z,66.90
2022-10-20T10:45:18.277Z,66.90
2022-10-20T10:48:09.354Z,66.90
2022-10-20T10:50:45.499Z,66.80
2022-10-20T10:53:30.875Z,66.70
2022-10-20T10:56:06.350Z,66.70
2022-10-20T10:58:46.351Z,66.60
2022-10-20T11:01:43.357Z,66.60
2022-10-20T11:04:37.038Z,66.60
2022-10-20T11:07:14.018Z,66.60
2022-10-20T11:09:48.388Z,66.50
2022-10-20T11:12:29.414Z,66.50
2022-10-20T11:15:12.355Z,66.50
2022-10-20T11:17:53.066Z,66.50
2022-10-20T11:20:31.142Z,66.50
2022-10-20T11:23:38.661Z,66.50
2022-10-20T11:26:15.156Z,66.50
2022-10-20T11:28:46.220Z,66.50
2022-10-20T11:31:24.029Z,66.50
2022-10-20T11:33:58.657Z,66.60
2022-10-20T11:36:32.786Z,66.60
2022-10-20T11:39:04.145Z,66.60
2022-10-20T11:41:39.566Z,66.60
2022-10-20T11:44:13.413Z,66.60
2022-10-20T11:46:45.306Z,66.60
2022-10-20T11:49:13.572Z,66.60
2022-10-20T11:52:13.364Z,66.50
2022-10-20T11:55:01.466Z,66.50
2022-10-20T11:57:44.097Z,66.50
2022-10-20T12:00:22.547Z,66.50
2022-10-20T12:03:29.150Z,66.60
2022-10-20T12:06:25.488Z,66.90
2022-10-20T12:09:18.680Z,67.20
2022-10-20T12:11:56.400Z,67.20
2022-10-20T12:14:30.668Z,67.50
2022-10-20T12:17:21.011Z,67.50
2022-10-20T12:19:51.566Z,67.60
2022-10-20T12:22:41.285Z,67.50
2022-10-20T12:25:39.778Z,67.50
2022-10-20T12:28:43.899Z,67.50
2022-10-20T12:31:12.067Z,67.50
2022-10-20T12:34:01.645Z,67.30
2022-10-20T12:36:37.581Z,67.30
2022-10-20T12:39:24.795Z,67.30
2022-10-20T12:42:02.027Z,67.30
2022-10-20T12:44:41.399Z,67.40
2022-10-20T12:47:10.622Z,67.40
2022-10-20T12:49:42.102Z,67.40
2022-10-20T12:52:20.677Z,67.40
2022-10-20T12:54:56.182Z,67.40
2022-10-20T12:57:35.372Z,67.30
2022-10-20T13:00:07.685Z,67.30
2022-10-20T13:02:50.621Z,67.40
2022-10-20T13:05:43.750Z,67.40
2022-10-20T13:08:33.936Z,67.50
2022-10-20T13:11:39.379Z,67.40
2022-10-20T13:14:30.474Z,67.40
2022-10-20T13:17:13.083Z,67.50
2022-10-20T13:19:48.803Z,67.50
2022-10-20T13:22:48.342Z,67.50
2022-10-20T13:25:32.626Z,67.60
2022-10-20T13:28:08.852Z,67.70
2022-10-20T13:30:37.554Z,67.70
2022-10-20T13:33:33.927Z,67.70
2022-10-20T13:36:12.764Z,67.80
2022-10-20T13:38:47.558Z,67.80
2022-10-20T13:41:24.880Z,67.80
2022-10-20T13:44:02.965Z,67.80
2022-10-20T13:46:45.342Z,67.90
2022-10-20T13:49:31.452Z,67.90
2022-10-20T13:52:04.130Z,68.00
2022-10-20T13:54:35.742Z,68.00
2022-10-20T13:57:04.620Z,68.00
2022-10-20T13:59:33.435Z,68.00
2022-10-20T14:02:03.734Z,68.00
2022-10-20T14:04:35.242Z,68.10
2022-10-20T14:07:04.990Z,68.10
2022-10-20T14:09:33.317Z,68.10
2022-10-20T14:12:05.079Z,68.10
2022-10-20T14:14:34.261Z,68.10
2022-10-20T14:17:04.927Z,68.10
2022-10-20T14:19:35.036Z,68.00
2022-10-20T14:22:14.362Z,68.00
2022-10-20T14:24:45.927Z,68.10
2022-10-20T14:27:19.691Z,68.00
2022-10-20T14:29:49.220Z,68.10
2022-10-20T14:32:21.013Z,68.10
2022-10-20T14:34:59.533Z,68.10
2022-10-20T14:37:32.521Z,68.10
2022-10-20T14:40:03.324Z,68.10
2022-10-20T14:42:33.423Z,68.10
2022-10-20T14:45:03.953Z,68.20
2022-10-20T14:47:35.677Z,68.20
2022-10-20T14:50:06.525Z,68.20
2022-10-20T14:52:37.290Z,68.20
2022-10-20T14:55:32.052Z,68.20
2022-10-20T14:58:00.419Z,68.30
2022-10-20T15:00:32.642Z,68.30
2022-10-20T15:03:06.629Z,68.30
2022-10-20T15:05:39.887Z,68.30
2022-10-20T15:08:18.831Z,68.20
2022-10-20T15:10:47.165Z,68.10
2022-10-20T15:13:28.531Z,68.00
2022-10-20T15:15:57.962Z,68.00
2022-10-20T15:18:26.542Z,68.00
2022-10-20T15:20:56.875Z,67.80
2022-10-20T15:23:27.268Z,67.20
2022-10-20T15:25:59.252Z,66.90
2022-10-20T15:28:38.154Z,66.70
2022-10-20T15:31:08.908Z,66.60
2022-10-20T15:33:37.077Z,66.60
2022-10-20T15:36:13.295Z,66.60
2022-10-20T15:38:41.380Z,66.60
2022-10-20T15:41:12.754Z,66.60
2022-10-20T15:43:40.842Z,66.70
2022-10-20T15:46:11.740Z,66.70
2022-10-20T15:48:39.942Z,66.70
2022-10-20T15:51:14.579Z,66.70
2022-10-20T15:53:44.314Z,66.80
2022-10-20T15:56:12.366Z,66.80
2022-10-20T15:58:40.442Z,66.90
2022-10-20T16:01:08.627Z,66.90
2022-10-20T16:03:40.641Z,66.90
2022-10-20T16:06:11.461Z,66.90
2022-10-20T16:08:39.543Z,66.90
2022-10-20T16:11:08.250Z,66.90
2022-10-20T16:13:38.339Z,66.90
2022-10-20T16:16:07.544Z,66.90
2022-10-20T16:18:35.843Z,66.90
2022-10-20T16:21:06.152Z,66.90
2022-10-20T16:23:40.568Z,66.90
2022-10-20T16:26:14.042Z,66.90
2022-10-20T16:28:42.321Z,66.90
2022-10-20T16:31:13.797Z,66.90
2022-10-20T16:33:41.919Z,66.90
2022-10-20T16:36:13.975Z,66.90
2022-10-20T16:38:43.764Z,66.90
2022-10-20T16:41:13.524Z,66.90
2022-10-20T16:43:43.576Z,66.90
2022-10-20T16:46:13.490Z,67.00
2022-10-20T16:48:44.041Z,67.00
2022-10-20T16:51:15.243Z,67.00
2022-10-20T16:53:45.538Z,67.00
2022-10-20T16:56:16.858Z,67.00
2022-10-20T16:58:48.352Z,67.10
2022-10-20T17:01:18.530Z,67.10
2022-10-20T17:03:48.528Z,67.10
2022-10-20T17:06:19.011Z,67.10
2022-10-20T17:08:48.896Z,67.10
2022-10-20T17:11:19.524Z,67.10
2022-10-20T17:13:47.664Z,67.10
2022-10-20T17:16:17.733Z,67.10
2022-10-20T17:18:46.284Z,67.10
2022-10-20T17:21:16.477Z,67.20
2022-10-20T17:23:47.924Z,67.20
2022-10-20T17:26:26.002Z,67.20
2022-10-20T17:28:55.380Z,67.20
2022-10-20T17:31:23.675Z,67.20
2022-10-20T17:33:52.548Z,67.20
2022-10-20T17:36:25.949Z,67.20
2022-10-20T17:38:57.713Z,67.20
2022-10-20T17:41:26.440Z,67.20
2022-10-20T17:43:54.521Z,67.20
2022-10-20T17:46:22.728Z,67.20
2022-10-20T17:48:50.871Z,67.20
2022-10-20T17:51:20.509Z,67.20
2022-10-20T17:53:50.727Z,67.20
2022-10-20T17:56:23.116Z,67.20
2022-10-20T17:58:52.231Z,67.20
2022-10-20T18:01:23.082Z,67.20
2022-10-20T18:03:56.226Z,67.20
2022-10-20T18:06:31.207Z,67.20
2022-10-20T18:09:04.868Z,67.20
2022-10-20T18:11:36.208Z,67.20
2022-10-20T18:14:05.492Z,67.20
2022-10-20T18:16:35.957Z,67.30
2022-10-20T18:19:04.170Z,67.30
2022-10-20T18:21:33.363Z,67.20
2022-10-20T18:24:03.177Z,67.20
2022-10-20T18:26:33.035Z,67.20
2022-10-20T18:29:03.639Z,67.20
2022-10-20T18:31:33.265Z,67.20
2022-10-20T18:34:06.542Z,67.20
2022-10-20T18:36:39.277Z,67.20
2022-10-20T18:39:10.982Z,67.20
2022-10-20T18:41:41.293Z,67.30
2022-10-20T18:44:13.595Z,67.30
2022-10-20T18:46:42.672Z,67.40
2022-10-20T18:49:13.566Z,67.40
2022-10-20T18:51:42.298Z,67.40
2022-10-20T18:54:10.889Z,67.40
2022-10-20T18:56:38.947Z,67.40
2022-10-20T18:59:12.018Z,67.30
2022-10-20T19:01:41.561Z,67.30
2022-10-20T19:04:11.485Z,67.30
2022-10-20T19:06:42.129Z,67.30
2022-10-20T19:09:12.224Z,67.30
2022-10-20T19:11:41.333Z,67.30
2022-10-20T19:14:11.707Z,67.30
2022-10-20T19:16:41.982Z,67.30
2022-10-20T19:19:11.734Z,67.30
2022-10-20T19:21:40.193Z,67.40
2022-10-20T19:24:10.098Z,67.50
2022-10-20T19:26:41.163Z,67.60
2022-10-20T19:29:13.249Z,67.60
2022-10-20T19:31:43.308Z,67.60
2022-10-20T19:34:14.138Z,67.60
2022-10-20T19:36:42.885Z,67.70
2022-10-20T19:39:12.743Z,67.70
2022-10-20T19:41:41.159Z,67.70
2022-10-20T19:44:13.053Z,67.70
2022-10-20T19:46:41.562Z,67.70
2022-10-20T19:49:09.868Z,67.70
2022-10-20T19:51:38.067Z,67.70
2022-10-20T19:54:07.009Z,67.70
2022-10-20T19:56:35.737Z,67.70
2022-10-20T19:59:04.921Z,67.80
2022-10-20T20:01:35.367Z,67.70
2022-10-20T20:04:03.629Z,67.70
2022-10-20T20:06:31.823Z,67.70
2022-10-20T20:09:02.422Z,67.70
2022-10-20T20:11:31.748Z,67.70
2022-10-20T20:14:02.647Z,67.80
2022-10-20T20:16:31.277Z,67.80
2022-10-20T20:19:00.735Z,67.80
2022-10-20T20:21:29.279Z,67.80
2022-10-20T20:24:00.563Z,67.80
2022-10-20T20:26:29.935Z,67.80
2022-10-20T20:28:58.458Z,67.80
2022-10-20T20:31:27.264Z,67.80
2022-10-20T20:33:56.651Z,67.90
2022-10-20T20:36:27.929Z,68.00
2022-10-20T20:38:58.052Z,68.00
2022-10-20T20:41:27.858Z,68.00
2022-10-20T20:43:56.585Z,68.00
2022-10-20T20:46:28.865Z,68.00
2022-10-20T20:48:57.004Z,68.10
2022-10-20T20:51:28.843Z,68.10
2022-10-20T20:53:57.003Z,68.10
2022-10-20T20:56:26.935Z,68.10
2022-10-20T20:58:55.868Z,68.10
2022-10-20T21:01:27.110Z,68.10
2022-10-20T21:03:55.559Z,68.10
2022-10-20T21:06:33.254Z,68.10
2022-10-20T21:09:09.224Z,68.10
2022-10-20T21:11:37.951Z,68.10
2022-10-20T21:14:06.414Z,68.10
2022-10-20T21:16:36.342Z,68.20
2022-10-20T21:19:07.969Z,68.20
2022-10-20T21:21:37.729Z,68.20
2022-10-20T21:24:07.982Z,68.20
2022-10-20T21:26:36.091Z,68.10
2022-10-20T21:29:04.262Z,68.10
2022-10-20T21:31:33.258Z,68.10
2022-10-20T21:34:03.298Z,68.10
2022-10-20T21:36:34.745Z,68.10
2022-10-20T21:39:04.352Z,68.10
2022-10-20T21:41:35.481Z,68.10
2022-10-20T21:44:05.530Z,68.10
2022-10-20T21:46:35.774Z,68.10
2022-10-20T21:49:06.590Z,68.10
2022-10-20T21:51:36.165Z,68.10
2022-10-20T21:54:07.464Z,68.00
2022-10-20T21:56:37.795Z,68.00
2022-10-20T21:59:06.463Z,68.00
2022-10-20T22:01:35.274Z,68.00
2022-10-20T22:04:03.438Z,68.00
2022-10-20T22:06:31.561Z,68.00
2022-10-20T22:09:00.952Z,68.00
2022-10-20T22:11:30.788Z,68.00
2022-10-20T22:14:00.289Z,68.00
2022-10-20T22:16:30.832Z,68.00
2022-10-20T22:19:00.999Z,68.00
2022-10-20T22:21:29.855Z,68.00
2022-10-20T22:23:59.127Z,68.00
2022-10-20T22:26:27.701Z,68.00
2022-10-20T22:28:56.270Z,68.00
2022-10-20T22:31:26.974Z,68.00
2022-10-20T22:33:56.988Z,67.90
2022-10-20T22:36:26.106Z,67.90
2022-10-20T22:38:54.335Z,67.90
2022-10-20T22:41:22.728Z,67.90
2022-10-20T22:43:50.890Z,67.90
2022-10-20T22:46:19.249Z,67.90
2022-10-20T22:48:48.827Z,67.90
2022-10-20T22:51:17.380Z,67.90
2022-10-20T22:53:45.943Z,67.90
2022-10-20T22:56:16.078Z,67.90
2022-10-20T22:58:44.788Z,67.90
2022-10-20T23:01:14.639Z,67.90
2022-10-20T23:03:43.546Z,67.90
2022-10-20T23:06:14.831Z,67.90
2022-10-20T23:08:45.281Z,67.90
2022-10-20T23:11:13.829Z,68.00
2022-10-20T23:13:41.980Z,68.00
2022-10-20T23:16:10.655Z,68.00
2022-10-20T23:18:39.145Z,68.00
2022-10-20T23:21:08.020Z,68.00
2022-10-20T23:23:38.123Z,68.00
2022-10-20T23:26:07.556Z,68.00
2022-10-20T23:28:35.951Z,68.00
2022-10-20T23:31:09.310Z,68.00
2022-10-20T23:33:37.627Z,68.00
2022-10-20T23:36:06.130Z,68.00
2022-10-20T23:38:34.238Z,68.00
2022-10-20T23:41:03.876Z,68.00
2022-10-20T23:43:32.059Z,68.00
2022-10-20T23:46:00.267Z,68.00
2022-10-20T23:48:28.810Z,68.00
2022-10-20T23:50:57.146Z,68.00
2022-10-20T23:53:25.491Z,68.00
2022-10-20T23:55:53.702Z,67.90
2022-10-20T23:58:25.176Z,67.90
